createdAt,value
2022-08-03T00:00:26.286Z,22.80
2022-08-03T00:02:52.970Z,22.80
2022-08-03T00:05:19.601Z,22.79
2022-08-03T00:07:46.037Z,22.72
2022-08-03T00:10:14.973Z,22.67
2022-08-03T00:12:41.370Z,22.64
2022-08-03T00:15:10.478Z,22.58
2022-08-03T00:17:52.076Z,22.54
2022-08-03T00:20:21.366Z,22.51
2022-08-03T00:22:47.826Z,22.46
2022-08-03T00:25:14.221Z,22.42
2022-08-03T00:27:40.601Z,22.42
2022-08-03T00:30:08.264Z,22.42
2022-08-03T00:32:34.677Z,22.39
2022-08-03T00:35:01.087Z,22.34
2022-08-03T00:37:41.391Z,22.31
2022-08-03T00:40:10.854Z,22.27
2022-08-03T00:42:53.738Z,22.24
2022-08-03T00:45:26.592Z,22.22
2022-08-03T00:47:53.605Z,22.19
2022-08-03T00:50:22.866Z,22.18
2022-08-03T00:52:51.669Z,22.15
2022-08-03T00:55:18.586Z,22.15
2022-08-03T00:57:45.450Z,22.14
2022-08-03T01:00:15.868Z,22.13
2022-08-03T01:02:42.529Z,22.15
2022-08-03T01:05:10.662Z,22.20
2022-08-03T01:07:57.683Z,22.21
2022-08-03T01:10:32.621Z,22.21
2022-08-03T01:14:01.150Z,22.20
2022-08-03T01:16:15.917Z,22.11
2022-08-03T01:19:00.110Z,22.04
2022-08-03T01:21:31.591Z,22.05
2022-08-03T01:24:18.784Z,22.02
2022-08-03T01:26:59.617Z,22.00
2022-08-03T01:29:39.528Z,21.97
2022-08-03T01:32:53.304Z,21.94
2022-08-03T01:35:11.412Z,21.94
2022-08-03T01:37:43.573Z,21.98
2022-08-03T01:40:13.184Z,21.97
2022-08-03T01:42:41.177Z,22.00
2022-08-03T01:45:10.591Z,22.03
2022-08-03T01:47:40.145Z,22.07
2022-08-03T01:50:09.479Z,22.09
2022-08-03T01:52:39.432Z,22.03
2022-08-03T01:55:07.114Z,21.96
2022-08-03T01:57:35.151Z,21.90
2022-08-03T02:00:22.691Z,21.88
2022-08-03T02:02:50.396Z,21.81
2022-08-03T02:05:19.607Z,21.76
2022-08-03T02:07:48.043Z,21.74
2022-08-03T02:10:22.165Z,21.71
2022-08-03T02:13:02.035Z,21.67
2022-08-03T02:15:29.960Z,21.63
2022-08-03T02:17:58.494Z,21.63
2022-08-03T02:20:25.369Z,21.61
2022-08-03T02:22:51.856Z,21.61
2022-08-03T02:25:18.279Z,21.59
2022-08-03T02:28:01.787Z,21.60
2022-08-03T02:30:38.534Z,21.61
2022-08-03T02:33:13.206Z,21.58
2022-08-03T02:35:40.430Z,21.58
2022-08-03T02:38:10.128Z,21.56
2022-08-03T02:40:38.396Z,21.58
2022-08-03T02:43:09.227Z,21.61
2022-08-03T02:45:41.525Z,21.61
2022-08-03T02:48:12.332Z,21.62
2022-08-03T02:50:39.902Z,21.60
2022-08-03T02:53:07.790Z,21.57
2022-08-03T02:55:35.943Z,21.54
2022-08-03T02:58:11.643Z,21.52
2022-08-03T03:00:39.796Z,21.52
2022-08-03T03:03:06.939Z,21.51
2022-08-03T03:05:56.074Z,21.49
2022-08-03T03:08:25.945Z,21.48
2022-08-03T03:10:56.328Z,21.45
2022-08-03T03:13:24.144Z,21.42
2022-08-03T03:15:52.584Z,21.37
2022-08-03T03:18:22.806Z,21.34
2022-08-03T03:20:52.942Z,21.29
2022-08-03T03:23:24.768Z,21.23
2022-08-03T03:25:52.305Z,21.23
2022-08-03T03:28:19.366Z,21.22
2022-08-03T03:30:52.695Z,21.23
2022-08-03T03:33:20.095Z,21.25
2022-08-03T03:35:47.248Z,21.28
2022-08-03T03:38:13.831Z,21.28
2022-08-03T03:40:40.749Z,21.27
2022-08-03T03:43:09.190Z,21.26
2022-08-03T03:45:35.868Z,21.25
2022-08-03T03:48:04.121Z,21.29
2022-08-03T03:50:32.684Z,21.29
2022-08-03T03:52:59.376Z,21.25
2022-08-03T03:55:25.906Z,21.20
2022-08-03T03:57:52.285Z,21.19
2022-08-03T04:00:19.661Z,21.18
2022-08-03T04:02:46.440Z,21.18
2022-08-03T04:05:32.313Z,21.18
2022-08-03T04:08:25.421Z,21.19
2022-08-03T04:11:17.879Z,21.14
2022-08-03T04:14:07.858Z,21.12
2022-08-03T04:16:43.145Z,21.06
2022-08-03T04:19:23.606Z,21.06
2022-08-03T04:21:52.761Z,21.02
2022-08-03T04:24:22.172Z,20.99
2022-08-03T04:26:54.519Z,20.95
2022-08-03T04:29:21.886Z,20.93
2022-08-03T04:31:49.164Z,20.91
2022-08-03T04:34:16.079Z,20.87
2022-08-03T04:36:49.726Z,20.87
2022-08-03T04:39:28.029Z,20.84
2022-08-03T04:42:07.667Z,20.82
2022-08-03T04:44:42.447Z,20.85
2022-08-03T04:47:08.929Z,20.86
2022-08-03T04:49:37.863Z,20.85
2022-08-03T04:52:07.194Z,20.83
2022-08-03T04:54:40.433Z,20.83
2022-08-03T04:57:07.096Z,20.85
2022-08-03T04:59:36.080Z,20.86
2022-08-03T05:02:07.385Z,20.89
2022-08-03T05:04:33.875Z,20.92
2022-08-03T05:07:00.325Z,20.95
2022-08-03T05:09:52.336Z,20.98
2022-08-03T05:12:19.033Z,20.99
2022-08-03T05:14:45.404Z,20.98
2022-08-03T05:17:11.790Z,20.98
2022-08-03T05:19:38.190Z,21.00
2022-08-03T05:22:04.605Z,21.03
2022-08-03T05:24:31.054Z,21.06
2022-08-03T05:26:57.457Z,21.06
2022-08-03T05:29:23.871Z,21.11
2022-08-03T05:31:50.281Z,21.12
2022-08-03T05:34:19.226Z,21.16
2022-08-03T05:36:45.597Z,21.21
2022-08-03T05:39:12.053Z,21.22
2022-08-03T05:41:38.435Z,21.30
2022-08-03T05:44:04.984Z,21.38
2022-08-03T05:46:31.659Z,21.42
2022-08-03T05:49:00.168Z,21.52
2022-08-03T05:51:26.599Z,21.74
2022-08-03T05:53:52.993Z,21.96
2022-08-03T05:56:23.493Z,22.22
2022-08-03T05:58:51.071Z,22.42
2022-08-03T06:01:18.270Z,22.68
2022-08-03T06:03:46.093Z,23.03
2022-08-03T06:06:12.733Z,23.39
2022-08-03T06:08:40.735Z,23.68
2022-08-03T06:11:07.635Z,24.01
2022-08-03T06:13:34.078Z,24.25
2022-08-03T06:16:00.476Z,24.51
2022-08-03T06:18:26.890Z,24.64
2022-08-03T06:20:53.728Z,24.62
2022-08-03T06:23:21.871Z,24.65
2022-08-03T06:25:48.256Z,24.81
2022-08-03T06:28:42.447Z,25.07
2022-08-03T06:31:01.633Z,25.11
2022-08-03T06:34:30.756Z,25.16
2022-08-03T06:36:15.532Z,25.49
2022-08-03T06:38:41.995Z,25.61
2022-08-03T06:41:08.407Z,25.52
2022-08-03T06:43:37.469Z,25.54
2022-08-03T06:46:05.378Z,25.48
2022-08-03T06:48:32.205Z,25.52
2022-08-03T06:50:59.138Z,25.74
2022-08-03T06:53:25.675Z,26.05
2022-08-03T06:55:54.739Z,26.05
2022-08-03T06:58:21.988Z,26.16
2022-08-03T07:00:48.392Z,26.25
2022-08-03T07:03:15.087Z,26.48
2022-08-03T07:05:43.460Z,26.74
2022-08-03T07:08:10.045Z,26.71
2022-08-03T07:10:36.927Z,26.75
2022-08-03T07:13:03.713Z,26.87
2022-08-03T07:15:55.616Z,27.04
2022-08-03T07:18:17.288Z,27.17
2022-08-03T07:20:53.993Z,27.26
2022-08-03T07:23:20.358Z,27.41
2022-08-03T07:25:46.920Z,27.56
2022-08-03T07:28:15.206Z,27.92
2022-08-03T07:30:41.670Z,28.23
2022-08-03T07:33:08.039Z,28.35
2022-08-03T07:35:34.594Z,28.26
2022-08-03T07:38:01.062Z,28.36
2022-08-03T07:40:28.193Z,28.44
2022-08-03T07:42:58.362Z,28.46
2022-08-03T07:45:26.424Z,28.53
2022-08-03T07:47:53.320Z,28.65
2022-08-03T07:50:20.522Z,28.57
2022-08-03T07:52:50.508Z,28.64
2022-08-03T07:55:21.876Z,28.66
2022-08-03T07:57:48.555Z,28.67
2022-08-03T08:00:19.317Z,28.72
2022-08-03T08:02:46.319Z,28.75
2022-08-03T08:05:12.750Z,28.86
2022-08-03T08:07:39.729Z,28.98
2022-08-03T08:10:08.145Z,28.98
2022-08-03T08:12:34.604Z,29.05
2022-08-03T08:15:01.232Z,29.17
2022-08-03T08:17:27.823Z,29.15
2022-08-03T08:19:54.359Z,29.13
2022-08-03T08:22:30.089Z,29.16
2022-08-03T08:24:59.559Z,29.26
2022-08-03T08:27:27.529Z,29.33
2022-08-03T08:29:56.333Z,29.41
2022-08-03T08:32:25.333Z,29.40
2022-08-03T08:34:51.755Z,29.28
2022-08-03T08:37:18.205Z,29.27
2022-08-03T08:39:44.642Z,29.37
2022-08-03T08:42:11.118Z,29.39
2022-08-03T08:44:37.573Z,29.38
2022-08-03T08:47:04.590Z,29.52
2022-08-03T08:49:32.960Z,29.67
2022-08-03T08:52:01.261Z,29.82
2022-08-03T08:54:29.587Z,29.93
2022-08-03T08:56:57.324Z,30.19
2022-08-03T08:59:24.879Z,30.45
2022-08-03T09:01:51.358Z,30.54
2022-08-03T09:04:18.018Z,30.40
2022-08-03T09:06:58.608Z,30.62
2022-08-03T09:10:11.709Z,30.68
2022-08-03T09:12:39.089Z,30.74
2022-08-03T09:15:21.719Z,30.96
2022-08-03T09:17:51.119Z,31.10
2022-08-03T09:20:19.339Z,31.04
2022-08-03T09:22:59.895Z,31.02
2022-08-03T09:25:37.470Z,31.00
2022-08-03T09:28:12.354Z,31.19
2022-08-03T09:30:41.319Z,31.38
2022-08-03T09:33:09.982Z,31.37
2022-08-03T09:35:57.378Z,31.36
2022-08-03T09:38:28.068Z,31.40
2022-08-03T09:40:59.584Z,31.22
2022-08-03T09:43:27.516Z,31.10
2022-08-03T09:46:03.242Z,31.22
2022-08-03T09:48:31.129Z,31.17
2022-08-03T09:51:14.122Z,31.07
2022-08-03T09:53:58.418Z,31.18
2022-08-03T09:56:40.953Z,31.19
2022-08-03T09:59:07.436Z,31.11
2022-08-03T10:01:35.799Z,30.79
2022-08-03T10:04:05.169Z,30.89
2022-08-03T10:06:31.930Z,31.00
2022-08-03T10:09:07.326Z,30.92
2022-08-03T10:11:41.335Z,30.99
2022-08-03T10:14:11.251Z,31.17
2022-08-03T10:16:40.580Z,31.32
2022-08-03T10:19:08.391Z,31.30
2022-08-03T10:21:37.496Z,31.04
2022-08-03T10:24:06.462Z,31.15
2022-08-03T10:26:35.547Z,31.24
2022-08-03T10:29:12.829Z,31.39
2022-08-03T10:31:57.297Z,31.41
2022-08-03T10:34:29.043Z,31.29
2022-08-03T10:36:58.641Z,31.29
2022-08-03T10:39:29.755Z,31.25
2022-08-03T10:41:59.827Z,31.45
2022-08-03T10:44:33.655Z,31.72
2022-08-03T10:47:01.014Z,31.64
2022-08-03T10:49:34.687Z,31.64
2022-08-03T10:52:06.592Z,31.82
2022-08-03T10:55:00.755Z,31.80
2022-08-03T10:57:58.804Z,31.48
2022-08-03T11:00:28.258Z,31.45
2022-08-03T11:03:03.195Z,31.51
2022-08-03T11:05:32.122Z,31.60
2022-08-03T11:08:28.020Z,31.77
2022-08-03T11:10:57.113Z,31.75
2022-08-03T11:13:26.244Z,31.70
2022-08-03T11:16:01.566Z,31.85
2022-08-03T11:18:29.881Z,31.98
2022-08-03T11:20:58.394Z,32.15
2022-08-03T11:24:04.966Z,32.27
2022-08-03T11:26:33.735Z,32.16
2022-08-03T11:29:29.146Z,32.05
2022-08-03T11:31:55.750Z,32.04
2022-08-03T11:34:22.189Z,32.33
2022-08-03T11:37:29.914Z,32.65
2022-08-03T11:39:59.421Z,32.51
2022-08-03T11:42:26.906Z,32.41
2022-08-03T11:44:55.883Z,32.39
2022-08-03T11:47:24.367Z,32.46
2022-08-03T11:49:54.650Z,32.40
2022-08-03T11:52:26.947Z,32.37
2022-08-03T11:54:57.181Z,32.33
2022-08-03T11:58:58.357Z,32.28
2022-08-03T12:00:23.876Z,32.25
2022-08-03T12:02:57.431Z,32.44
2022-08-03T12:05:51.748Z,32.64
2022-08-03T12:08:28.001Z,32.72
2022-08-03T12:10:56.503Z,32.90
2022-08-03T12:14:33.106Z,33.13
2022-08-03T12:16:10.286Z,33.16
2022-08-03T12:18:36.988Z,33.26
2022-08-03T12:21:13.557Z,33.46
2022-08-03T12:23:40.130Z,33.59
2022-08-03T12:26:09.781Z,33.61
2022-08-03T12:28:38.633Z,33.63
2022-08-03T12:31:09.091Z,33.61
2022-08-03T12:34:12.279Z,33.68
2022-08-03T12:36:39.136Z,33.84
2022-08-03T12:39:07.968Z,33.89
2022-08-03T12:41:37.047Z,33.91
2022-08-03T12:44:08.379Z,34.03
2022-08-03T12:46:35.778Z,33.96
2022-08-03T12:49:03.934Z,33.81
2022-08-03T12:51:35.647Z,33.77
2022-08-03T12:54:04.417Z,33.74
2022-08-03T12:56:31.152Z,33.72
2022-08-03T12:58:57.653Z,33.72
2022-08-03T13:01:24.528Z,33.74
2022-08-03T13:03:53.573Z,33.66
2022-08-03T13:06:23.593Z,33.65
2022-08-03T13:09:02.014Z,33.56
2022-08-03T13:11:55.479Z,33.61
2022-08-03T13:14:16.827Z,33.69
2022-08-03T13:16:46.180Z,33.83
2022-08-03T13:19:15.699Z,33.86
2022-08-03T13:22:03.209Z,33.89
2022-08-03T13:24:30.532Z,33.82
2022-08-03T13:26:58.001Z,33.77
2022-08-03T13:29:24.355Z,33.75
2022-08-03T13:31:51.481Z,33.68
2022-08-03T13:34:22.933Z,33.60
2022-08-03T13:37:08.563Z,33.55
2022-08-03T13:39:57.205Z,33.52
2022-08-03T13:42:25.852Z,33.61
2022-08-03T13:44:52.444Z,33.66
2022-08-03T13:47:19.470Z,33.55
2022-08-03T13:49:54.289Z,33.46
2022-08-03T13:52:26.963Z,33.51
2022-08-03T13:54:53.961Z,33.57
2022-08-03T13:58:05.335Z,33.64
2022-08-03T14:00:07.850Z,33.71
2022-08-03T14:02:34.265Z,33.70
2022-08-03T14:05:00.686Z,33.70
2022-08-03T14:07:27.170Z,33.59
2022-08-03T14:09:53.561Z,33.56
2022-08-03T14:12:19.968Z,33.49
2022-08-03T14:14:46.382Z,33.32
2022-08-03T14:17:12.762Z,33.15
2022-08-03T14:19:53.240Z,33.06
2022-08-03T14:22:20.813Z,32.98
2022-08-03T14:24:47.179Z,33.03
2022-08-03T14:27:13.611Z,33.04
2022-08-03T14:29:40.010Z,33.01
2022-08-03T14:32:12.095Z,32.92
2022-08-03T14:34:39.569Z,32.93
2022-08-03T14:37:06.006Z,32.94
2022-08-03T14:42:20.376Z,32.99
2022-08-03T14:44:47.189Z,32.99
2022-08-03T14:47:15.309Z,32.97
2022-08-03T14:50:31.835Z,32.94
2022-08-03T14:52:28.996Z,32.85
2022-08-03T14:54:55.409Z,32.79
2022-08-03T14:57:22.212Z,32.85
2022-08-03T14:59:54.145Z,32.79
2022-08-03T15:02:24.642Z,32.79
2022-08-03T15:04:51.703Z,32.85
2022-08-03T15:07:18.383Z,32.89
2022-08-03T15:09:45.062Z,32.89
2022-08-03T15:12:11.493Z,32.92
2022-08-03T15:14:38.867Z,33.09
2022-08-03T15:17:05.879Z,33.18
2022-08-03T15:20:00.880Z,33.19
2022-08-03T15:22:20.789Z,33.07
2022-08-03T15:24:51.661Z,33.02
2022-08-03T15:27:18.372Z,33.00
2022-08-03T15:30:07.538Z,32.93
2022-08-03T15:32:31.672Z,32.85
2022-08-03T15:34:58.135Z,32.79
2022-08-03T15:37:27.521Z,32.77
2022-08-03T15:39:58.273Z,32.76
2022-08-03T15:42:28.267Z,32.74
2022-08-03T15:44:54.886Z,32.70
2022-08-03T15:47:21.563Z,32.70
2022-08-03T15:49:48.247Z,32.74
2022-08-03T15:52:14.657Z,32.70
2022-08-03T15:54:41.072Z,32.65
2022-08-03T15:57:07.664Z,32.65
2022-08-03T15:59:34.063Z,32.62
2022-08-03T16:02:00.524Z,32.63
2022-08-03T16:04:27.090Z,32.62
2022-08-03T16:06:53.539Z,32.62
2022-08-03T16:09:24.293Z,32.61
2022-08-03T16:12:06.608Z,32.60
2022-08-03T16:14:52.820Z,32.54
2022-08-03T16:17:21.152Z,32.53
2022-08-03T16:19:47.972Z,32.52
2022-08-03T16:22:14.658Z,32.40
2022-08-03T16:24:41.304Z,32.22
2022-08-03T16:27:17.702Z,32.12
2022-08-03T16:29:54.432Z,32.13
2022-08-03T16:32:20.872Z,32.10
2022-08-03T16:34:49.381Z,32.05
2022-08-03T16:37:37.734Z,31.98
2022-08-03T16:40:03.511Z,31.92
2022-08-03T16:42:30.217Z,31.89
2022-08-03T16:44:56.721Z,31.92
2022-08-03T16:47:23.345Z,31.85
2022-08-03T16:49:54.994Z,31.85
2022-08-03T16:52:23.038Z,31.87
2022-08-03T16:54:50.570Z,31.87
2022-08-03T16:57:55.872Z,31.89
2022-08-03T17:00:07.682Z,31.89
2022-08-03T17:02:34.181Z,31.88
2022-08-03T17:05:03.617Z,31.81
2022-08-03T17:07:30.495Z,31.70
2022-08-03T17:09:57.539Z,31.69
2022-08-03T17:12:26.785Z,31.74
2022-08-03T17:14:56.357Z,31.75
2022-08-03T17:17:37.575Z,31.70
2022-08-03T17:20:20.424Z,31.63
2022-08-03T17:23:14.532Z,31.69
2022-08-03T17:26:02.263Z,31.64
2022-08-03T17:28:50.674Z,31.63
2022-08-03T17:31:23.448Z,31.69
2022-08-03T17:34:00.969Z,31.68
2022-08-03T17:36:47.702Z,31.66
2022-08-03T17:39:16.469Z,31.62
2022-08-03T17:41:50.027Z,31.63
2022-08-03T17:47:06.485Z,31.61
2022-08-03T17:49:33.462Z,31.66
2022-08-03T17:52:30.752Z,31.70
2022-08-03T17:55:56.879Z,31.68
2022-08-03T17:58:09.782Z,31.65
2022-08-03T18:00:59.760Z,31.59
2022-08-03T18:03:57.940Z,31.53
2022-08-03T18:06:56.220Z,31.49
2022-08-03T18:10:06.246Z,31.47
2022-08-03T18:12:18.563Z,31.42
2022-08-03T18:14:57.150Z,31.38
2022-08-03T18:17:55.669Z,31.33
2022-08-03T18:20:33.003Z,31.30
2022-08-03T18:23:04.809Z,31.31
2022-08-03T18:25:44.977Z,31.32
2022-08-03T18:28:16.353Z,31.32
2022-08-03T18:30:54.536Z,31.33
2022-08-03T18:34:16.918Z,31.34
2022-08-03T18:36:10.359Z,31.36
2022-08-03T18:38:40.698Z,31.32
2022-08-03T18:41:13.213Z,31.28
2022-08-03T18:44:08.304Z,31.24
2022-08-03T18:46:41.662Z,31.17
2022-08-03T18:49:14.286Z,31.05
2022-08-03T18:51:46.411Z,30.91
2022-08-03T18:55:07.296Z,30.76
2022-08-03T18:58:03.340Z,30.60
2022-08-03T19:00:53.824Z,30.50
2022-08-03T19:03:24.427Z,30.48
2022-08-03T19:06:03.115Z,30.44
2022-08-03T19:08:51.979Z,30.37
2022-08-03T19:12:14.214Z,30.33
2022-08-03T19:14:45.666Z,30.23
2022-08-03T19:17:14.004Z,30.17
2022-08-03T19:19:44.942Z,30.13
2022-08-03T19:22:12.598Z,30.06
2022-08-03T19:24:45.098Z,29.95
2022-08-03T19:27:16.106Z,29.84
2022-08-03T19:29:58.797Z,29.78
2022-08-03T19:32:29.542Z,29.69
2022-08-03T19:34:57.421Z,29.63
2022-08-03T19:37:27.447Z,29.61
2022-08-03T19:40:06.093Z,29.60
2022-08-03T19:42:40.775Z,29.61
2022-08-03T19:45:13.786Z,29.60
2022-08-03T19:47:51.375Z,29.57
2022-08-03T19:50:20.000Z,29.54
2022-08-03T19:52:47.754Z,29.47
2022-08-03T19:55:15.592Z,29.36
2022-08-03T19:57:46.158Z,29.29
2022-08-03T20:00:19.307Z,29.24
2022-08-03T20:02:46.283Z,29.13
2022-08-03T20:05:19.924Z,29.14
2022-08-03T20:07:48.327Z,29.10
2022-08-03T20:10:17.604Z,29.04
2022-08-03T20:12:45.717Z,28.99
2022-08-03T20:18:02.450Z,28.88
2022-08-03T20:20:31.790Z,28.82
2022-08-03T20:23:00.147Z,28.74
2022-08-03T20:25:38.579Z,28.66
2022-08-03T20:28:13.439Z,28.58
2022-08-03T20:30:43.345Z,28.49
2022-08-03T20:33:10.141Z,28.42
2022-08-03T20:35:41.992Z,28.39
2022-08-03T20:38:12.248Z,28.31
2022-08-03T20:40:38.879Z,28.21
2022-08-03T20:43:08.301Z,28.12
2022-08-03T20:45:59.098Z,28.09
2022-08-03T20:48:25.995Z,28.02
2022-08-03T20:50:55.279Z,27.98
2022-08-03T20:53:57.102Z,27.89
2022-08-03T20:56:09.229Z,27.84
2022-08-03T20:58:36.551Z,27.80
2022-08-03T21:01:05.395Z,27.75
2022-08-03T21:03:40.531Z,27.71
2022-08-03T21:06:14.984Z,27.67
2022-08-03T21:08:46.772Z,27.58
2022-08-03T21:11:18.148Z,27.48
2022-08-03T21:13:04.438Z,31.62
2022-08-03T21:13:10.127Z,28.93
2022-08-03T21:14:08.565Z,27.38
2022-08-03T21:16:41.141Z,27.30
2022-08-03T21:19:07.976Z,27.24
2022-08-03T21:21:38.390Z,27.20
2022-08-03T21:24:06.238Z,27.17
2022-08-03T21:26:34.050Z,27.12
2022-08-03T21:29:03.416Z,27.09
2022-08-03T21:31:30.009Z,27.02
2022-08-03T21:34:05.259Z,26.94
2022-08-03T21:36:35.434Z,26.89
2022-08-03T21:39:04.924Z,26.80
2022-08-03T21:41:32.404Z,26.73
2022-08-03T21:44:00.146Z,26.66
2022-08-03T21:46:29.588Z,26.59
2022-08-03T21:50:07.377Z,26.53
2022-08-03T21:51:49.504Z,26.50
2022-08-03T21:54:17.080Z,26.47
2022-08-03T21:56:47.812Z,26.47
2022-08-03T21:59:20.007Z,26.46
2022-08-03T22:01:55.354Z,26.42
2022-08-03T22:04:53.250Z,26.39
2022-08-03T22:07:12.846Z,26.34
2022-08-03T22:09:39.810Z,26.30
2022-08-03T22:12:16.641Z,26.26
2022-08-03T22:14:43.473Z,26.24
2022-08-03T22:17:10.178Z,26.22
2022-08-03T22:19:37.515Z,26.17
2022-08-03T22:22:07.519Z,26.16
2022-08-03T22:24:36.391Z,26.11
2022-08-03T22:27:22.605Z,26.11
2022-08-03T22:29:50.962Z,26.10
2022-08-03T22:32:17.361Z,26.09
2022-08-03T22:34:46.208Z,26.06
2022-08-03T22:37:15.456Z,26.01
2022-08-03T22:39:43.559Z,25.99
2022-08-03T22:42:10.190Z,25.95
2022-08-03T22:44:36.815Z,25.89
2022-08-03T22:47:04.295Z,25.84
2022-08-03T22:49:32.256Z,25.79
2022-08-03T22:51:59.098Z,25.74
2022-08-03T22:54:25.662Z,25.74
2022-08-03T22:56:52.557Z,25.72
2022-08-03T22:59:41.351Z,25.66
2022-08-03T23:02:15.054Z,25.67
2022-08-03T23:04:51.320Z,25.63
2022-08-03T23:07:29.700Z,25.60
2022-08-03T23:09:57.752Z,25.58
2022-08-03T23:12:25.670Z,25.57
2022-08-03T23:14:55.516Z,25.58
2022-08-03T23:17:24.052Z,25.55
2022-08-03T23:19:52.691Z,25.52
2022-08-03T23:22:30.405Z,25.48
2022-08-03T23:24:58.836Z,25.41
2022-08-03T23:27:27.704Z,25.40
2022-08-03T23:29:57.501Z,25.37
2022-08-03T23:32:30.127Z,25.36
2022-08-03T23:35:18.469Z,25.37
2022-08-03T23:38:04.388Z,25.37
2022-08-03T23:40:33.462Z,25.37
2022-08-03T23:43:01.987Z,25.35
2022-08-03T23:45:31.477Z,25.34
2022-08-03T23:47:57.951Z,25.30
2022-08-03T23:50:24.518Z,25.24
2022-08-03T23:53:11.912Z,25.25
2022-08-03T23:55:44.127Z,25.25
2022-08-03T23:58:47.449Z,25.25
